sensor_id;sensor_type;location;lat;lon;timestamp;pressure;altitude;pressure_sealevel;temperature;humidity
65897;BME280;52677;50.898;10.854;2023-04-07T00:00:37;98573.06;;;-0.02;92.49
65897;BME280;52677;50.898;10.854;2023-04-07T00:02:37;98574.66;;;-0.01;91.72
65897;BME280;52677;50.898;10.854;2023-04-07T00:04:37;98566.81;;;-0.02;92.03
65897;BME280;52677;50.898;10.854;2023-04-07T00:06:37;98573.88;;;-0.01;90.70
65897;BME280;52677;50.898;10.854;2023-04-07T00:08:39;98566.03;;;-0.03;90.77
65897;BME280;52677;50.898;10.854;2023-04-07T00:10:40;98575.28;;;-0.04;90.71
65897;BME280;52677;50.898;10.854;2023-04-07T00:12:40;98580.97;;;-0.14;93.55
65897;BME280;52677;50.898;10.854;2023-04-07T00:14:41;98587.22;;;-0.13;96.26
65897;BME280;52677;50.898;10.854;2023-04-07T00:16:41;98572.72;;;-0.22;97.37
65897;BME280;52677;50.898;10.854;2023-04-07T00:18:42;98581.09;;;-0.33;97.64
65897;BME280;52677;50.898;10.854;2023-04-07T00:20:42;98573.53;;;-0.36;99.94
65897;BME280;52677;50.898;10.854;2023-04-07T00:22:42;98583.50;;;-0.45;100.00
65897;BME280;52677;50.898;10.854;2023-04-07T00:24:43;98592.47;;;-0.58;100.00
65897;BME280;52677;50.898;10.854;2023-04-07T00:26:43;98590.66;;;-0.63;100.00
65897;BME280;52677;50.898;10.854;2023-04-07T00:28:43;98588.84;;;-0.67;100.00
65897;BME280;52677;50.898;10.854;2023-04-07T00:30:44;98585.13;;;-0.71;100.00
65897;BME280;52677;50.898;10.854;2023-04-07T00:32:44;98572.75;;;-0.77;100.00
65897;BME280;52677;50.898;10.854;2023-04-07T00:34:45;98574.56;;;-0.73;100.00
65897;BME280;52677;50.898;10.854;2023-04-07T00:36:45;98571.63;;;-0.76;100.00
65897;BME280;52677;50.898;10.854;2023-04-07T00:38:51;98579.78;;;-0.76;100.00
65897;BME280;52677;50.898;10.854;2023-04-07T00:41:00;98571.84;;;-0.73;99.90
65897;BME280;52677;50.898;10.854;2023-04-07T00:43:00;98578.78;;;-0.80;100.00
65897;BME280;52677;50.898;10.854;2023-04-07T00:45:01;98576.16;;;-0.86;100.00
65897;BME280;52677;50.898;10.854;2023-04-07T00:47:01;98576.66;;;-0.83;99.70
65897;BME280;52677;50.898;10.854;2023-04-07T00:49:01;98582.50;;;-0.76;99.55
65897;BME280;52677;50.898;10.854;2023-04-07T00:51:02;98573.66;;;-0.68;98.05
65897;BME280;52677;50.898;10.854;2023-04-07T00:53:03;98570.31;;;-0.51;98.38
65897;BME280;52677;50.898;10.854;2023-04-07T00:55:04;98571.66;;;-0.49;96.12
65897;BME280;52677;50.898;10.854;2023-04-07T00:57:05;98571.44;;;-0.52;95.34
65897;BME280;52677;50.898;10.854;2023-04-07T00:59:06;98564.69;;;-0.55;96.19
65897;BME280;52677;50.898;10.854;2023-04-07T01:01:09;98569.91;;;-0.59;96.64
65897;BME280;52677;50.898;10.854;2023-04-07T01:03:21;98567.50;;;-0.60;96.64
65897;BME280;52677;50.898;10.854;2023-04-07T01:07:47;98571.94;;;-0.64;96.06
65897;BME280;52677;50.898;10.854;2023-04-07T01:10:04;98572.84;;;-0.69;97.91
65897;BME280;52677;50.898;10.854;2023-04-07T01:14:23;98563.00;;;-0.78;96.81
65897;BME280;52677;50.898;10.854;2023-04-07T01:16:30;98556.16;;;-0.90;97.47
65897;BME280;52677;50.898;10.854;2023-04-07T01:18:32;98552.72;;;-0.95;99.52
65897;BME280;52677;50.898;10.854;2023-04-07T01:20:33;98557.16;;;-0.99;100.00
65897;BME280;52677;50.898;10.854;2023-04-07T01:22:41;98561.97;;;-0.96;100.00
65897;BME280;52677;50.898;10.854;2023-04-07T01:27:20;98562.28;;;-0.84;98.01
65897;BME280;52677;50.898;10.854;2023-04-07T01:29:25;98566.59;;;-0.83;98.12
65897;BME280;52677;50.898;10.854;2023-04-07T01:31:27;98562.69;;;-0.91;98.30
65897;BME280;52677;50.898;10.854;2023-04-07T01:33:30;98557.66;;;-0.97;100.00
65897;BME280;52677;50.898;10.854;2023-04-07T01:35:33;98554.44;;;-0.99;99.24
65897;BME280;52677;50.898;10.854;2023-04-07T01:37:35;98556.84;;;-0.98;98.52
65897;BME280;52677;50.898;10.854;2023-04-07T01:39:37;98564.09;;;-1.07;100.00
65897;BME280;52677;50.898;10.854;2023-04-07T01:41:38;98561.25;;;-1.16;100.00
65897;BME280;52677;50.898;10.854;2023-04-07T01:43:40;98553.81;;;-1.24;100.00
65897;BME280;52677;50.898;10.854;2023-04-07T01:45:41;98554.47;;;-1.32;100.00
65897;BME280;52677;50.898;10.854;2023-04-07T01:47:43;98553.06;;;-1.29;100.00
65897;BME280;52677;50.898;10.854;2023-04-07T01:49:45;98558.94;;;-1.22;100.00
65897;BME280;52677;50.898;10.854;2023-04-07T01:51:46;98550.78;;;-1.22;100.00
65897;BME280;52677;50.898;10.854;2023-04-07T01:53:49;98557.91;;;-1.26;100.00
65897;BME280;52677;50.898;10.854;2023-04-07T01:55:51;98564.00;;;-1.34;100.00
65897;BME280;52677;50.898;10.854;2023-04-07T01:57:52;98556.84;;;-1.44;100.00
65897;BME280;52677;50.898;10.854;2023-04-07T01:59:53;98560.16;;;-1.47;100.00
65897;BME280;52677;50.898;10.854;2023-04-07T02:01:53;98570.41;;;-1.44;100.00
65897;BME280;52677;50.898;10.854;2023-04-07T02:04:05;98564.88;;;-1.53;100.00
65897;BME280;52677;50.898;10.854;2023-04-07T02:06:12;98555.78;;;-1.62;100.00
65897;BME280;52677;50.898;10.854;2023-04-07T02:08:16;98548.25;;;-1.65;100.00
65897;BME280;52677;50.898;10.854;2023-04-07T02:10:20;98558.88;;;-1.68;100.00
65897;BME280;52677;50.898;10.854;2023-04-07T02:12:22;98556.28;;;-1.74;100.00
65897;BME280;52677;50.898;10.854;2023-04-07T02:14:24;98561.69;;;-1.74;100.00
65897;BME280;52677;50.898;10.854;2023-04-07T02:16:28;98555.22;;;-1.78;100.00
65897;BME280;52677;50.898;10.854;2023-04-07T02:18:30;98550.25;;;-1.71;100.00
65897;BME280;52677;50.898;10.854;2023-04-07T02:20:32;98549.44;;;-1.71;100.00
65897;BME280;52677;50.898;10.854;2023-04-07T02:22:35;98541.38;;;-1.76;100.00
65897;BME280;52677;50.898;10.854;2023-04-07T02:24:40;98547.16;;;-1.83;100.00
65897;BME280;52677;50.898;10.854;2023-04-07T02:26:41;98537.34;;;-1.79;100.00
65897;BME280;52677;50.898;10.854;2023-04-07T02:28:42;98543.22;;;-1.72;100.00
65897;BME280;52677;50.898;10.854;2023-04-07T02:30:42;98544.59;;;-1.74;100.00
65897;BME280;52677;50.898;10.854;2023-04-07T02:32:42;98541.66;;;-1.78;100.00
65897;BME280;52677;50.898;10.854;2023-04-07T02:34:42;98543.16;;;-1.85;100.00
65897;BME280;52677;50.898;10.854;2023-04-07T02:36:43;98543.38;;;-1.82;100.00
65897;BME280;52677;50.898;10.854;2023-04-07T02:38:43;98551.66;;;-1.73;100.00
65897;BME280;52677;50.898;10.854;2023-04-07T02:40:43;98547.69;;;-1.81;100.00
65897;BME280;52677;50.898;10.854;2023-04-07T02:42:45;98547.47;;;-1.84;100.00
65897;BME280;52677;50.898;10.854;2023-04-07T02:44:45;98542.41;;;-1.91;100.00
65897;BME280;52677;50.898;10.854;2023-04-07T02:46:45;98545.41;;;-1.92;100.00
65897;BME280;52677;50.898;10.854;2023-04-07T02:48:46;98548.44;;;-1.94;100.00
65897;BME280;52677;50.898;10.854;2023-04-07T02:50:46;98549.91;;;-2.02;100.00
65897;BME280;52677;50.898;10.854;2023-04-07T02:52:46;98545.91;;;-1.90;100.00
65897;BME280;52677;50.898;10.854;2023-04-07T02:54:46;98552.19;;;-1.90;100.00
65897;BME280;52677;50.898;10.854;2023-04-07T02:56:47;98545.34;;;-1.87;100.00
65897;BME280;52677;50.898;10.854;2023-04-07T02:58:47;98553.19;;;-1.86;100.00
65897;BME280;52677;50.898;10.854;2023-04-07T03:00:48;98549.59;;;-1.81;100.00
65897;BME280;52677;50.898;10.854;2023-04-07T03:02:48;98549.38;;;-1.85;100.00
65897;BME280;52677;50.898;10.854;2023-04-07T03:04:50;98554.63;;;-1.75;100.00
65897;BME280;52677;50.898;10.854;2023-04-07T03:06:51;98551.22;;;-1.80;100.00
65897;BME280;52677;50.898;10.854;2023-04-07T03:08:51;98547.75;;;-1.86;100.00
65897;BME280;52677;50.898;10.854;2023-04-07T03:10:52;98546.81;;;-1.95;100.00
65897;BME280;52677;50.898;10.854;2023-04-07T03:12:52;98547.03;;;-1.91;100.00
65897;BME280;52677;50.898;10.854;2023-04-07T03:14:52;98550.63;;;-1.96;100.00
65897;BME280;52677;50.898;10.854;2023-04-07T03:16:53;98541.31;;;-2.09;100.00
65897;BME280;52677;50.898;10.854;2023-04-07T03:18:53;98535.09;;;-2.09;100.00
65897;BME280;52677;50.898;10.854;2023-04-07T03:20:53;98537.66;;;-2.18;100.00
65897;BME280;52677;50.898;10.854;2023-04-07T03:22:55;98537.81;;;-2.09;100.00
65897;BME280;52677;50.898;10.854;2023-04-07T03:24:56;98539.22;;;-2.12;100.00
65897;BME280;52677;50.898;10.854;2023-04-07T03:26:56;98536.81;;;-2.13;100.00
65897;BME280;52677;50.898;10.854;2023-04-07T03:28:56;98526.75;;;-2.13;100.00
65897;BME280;52677;50.898;10.854;2023-04-07T03:30:56;98531.06;;;-2.12;100.00
65897;BME280;52677;50.898;10.854;2023-04-07T03:32:57;98534.44;;;-2.01;100.00
65897;BME280;52677;50.898;10.854;2023-04-07T03:34:57;98525.06;;;-2.09;100.00
65897;BME280;52677;50.898;10.854;2023-04-07T03:36:57;98533.34;;;-2.19;100.00
65897;BME280;52677;50.898;10.854;2023-04-07T03:38:58;98535.25;;;-2.19;100.00
65897;BME280;52677;50.898;10.854;2023-04-07T03:40:58;98534.16;;;-2.18;100.00
65897;BME280;52677;50.898;10.854;2023-04-07T03:42:59;98532.53;;;-2.19;100.00
65897;BME280;52677;50.898;10.854;2023-04-07T03:44:59;98527.47;;;-2.26;100.00
65897;BME280;52677;50.898;10.854;2023-04-07T03:47:00;98534.38;;;-2.34;100.00
65897;BME280;52677;50.898;10.854;2023-04-07T03:49:00;98537.16;;;-2.39;100.00
65897;BME280;52677;50.898;10.854;2023-04-07T03:51:01;98534.50;;;-2.44;100.00
65897;BME280;52677;50.898;10.854;2023-04-07T03:53:01;98529.44;;;-2.50;100.00
65897;BME280;52677;50.898;10.854;2023-04-07T03:55:02;98528.44;;;-2.55;100.00
65897;BME280;52677;50.898;10.854;2023-04-07T03:57:02;98536.25;;;-2.53;100.00
65897;BME280;52677;50.898;10.854;2023-04-07T03:59:03;98528.13;;;-2.53;100.00
65897;BME280;52677;50.898;10.854;2023-04-07T04:01:03;98527.63;;;-2.55;100.00
65897;BME280;52677;50.898;10.854;2023-04-07T04:03:04;98536.41;;;-2.63;100.00
65897;BME280;52677;50.898;10.854;2023-04-07T04:05:04;98533.53;;;-2.72;100.00
65897;BME280;52677;50.898;10.854;2023-04-07T04:07:05;98538.94;;;-2.72;100.00
65897;BME280;52677;50.898;10.854;2023-04-07T04:09:05;98529.78;;;-2.76;100.00
65897;BME280;52677;50.898;10.854;2023-04-07T04:11:06;98529.84;;;-2.81;100.00
65897;BME280;52677;50.898;10.854;2023-04-07T04:13:06;98532.91;;;-2.88;100.00
65897;BME280;52677;50.898;10.854;2023-04-07T04:15:07;98530.69;;;-2.86;100.00
65897;BME280;52677;50.898;10.854;2023-04-07T04:17:08;98535.25;;;-2.81;100.00
65897;BME280;52677;50.898;10.854;2023-04-07T04:19:08;98525.75;;;-2.78;100.00
65897;BME280;52677;50.898;10.854;2023-04-07T04:21:08;98536.28;;;-2.77;100.00
65897;BME280;52677;50.898;10.854;2023-04-07T04:23:08;98537.09;;;-2.76;100.00
65897;BME280;52677;50.898;10.854;2023-04-07T04:25:09;98530.28;;;-2.74;100.00
65897;BME280;52677;50.898;10.854;2023-04-07T04:27:09;98536.34;;;-2.82;100.00
65897;BME280;52677;50.898;10.854;2023-04-07T04:29:09;98528.34;;;-2.92;100.00
65897;BME280;52677;50.898;10.854;2023-04-07T04:31:10;98530.69;;;-2.86;100.00
65897;BME280;52677;50.898;10.854;2023-04-07T04:33:10;98533.28;;;-2.75;100.00
65897;BME280;52677;50.898;10.854;2023-04-07T04:35:10;98538.66;;;-2.70;100.00
65897;BME280;52677;50.898;10.854;2023-04-07T04:37:11;98535.69;;;-2.74;100.00
65897;BME280;52677;50.898;10.854;2023-04-07T04:39:11;98536.94;;;-2.85;100.00
65897;BME280;52677;50.898;10.854;2023-04-07T04:41:11;98535.25;;;-2.81;100.00
65897;BME280;52677;50.898;10.854;2023-04-07T04:43:12;98540.94;;;-2.83;100.00
65897;BME280;52677;50.898;10.854;2023-04-07T04:45:12;98546.19;;;-2.91;100.00
65897;BME280;52677;50.898;10.854;2023-04-07T04:47:12;98537.59;;;-2.98;100.00
65897;BME280;52677;50.898;10.854;2023-04-07T04:49:13;98544.41;;;-3.01;100.00
65897;BME280;52677;50.898;10.854;2023-04-07T04:51:14;98549.81;;;-3.01;100.00
65897;BME280;52677;50.898;10.854;2023-04-07T04:53:15;98544.66;;;-2.97;100.00
65897;BME280;52677;50.898;10.854;2023-04-07T04:55:15;98548.44;;;-2.98;100.00
65897;BME280;52677;50.898;10.854;2023-04-07T04:57:15;98538.88;;;-2.91;100.00
65897;BME280;52677;50.898;10.854;2023-04-07T04:59:16;98538.53;;;-2.84;100.00
65897;BME280;52677;50.898;10.854;2023-04-07T05:01:16;98536.06;;;-2.80;100.00
65897;BME280;52677;50.898;10.854;2023-04-07T05:03:16;98533.88;;;-2.78;100.00
65897;BME280;52677;50.898;10.854;2023-04-07T05:05:17;98529.94;;;-2.91;100.00
65897;BME280;52677;50.898;10.854;2023-04-07T05:07:17;98541.66;;;-2.96;100.00
65897;BME280;52677;50.898;10.854;2023-04-07T05:09:17;98536.81;;;-2.99;100.00
65897;BME280;52677;50.898;10.854;2023-04-07T05:11:18;98541.88;;;-2.92;100.00
65897;BME280;52677;50.898;10.854;2023-04-07T05:13:18;98545.25;;;-2.82;100.00
65897;BME280;52677;50.898;10.854;2023-04-07T05:15:18;98539.22;;;-2.73;100.00
65897;BME280;52677;50.898;10.854;2023-04-07T05:17:18;98542.22;;;-2.75;100.00
65897;BME280;52677;50.898;10.854;2023-04-07T05:19:19;98543.00;;;-2.74;100.00
65897;BME280;52677;50.898;10.854;2023-04-07T05:21:19;98543.59;;;-2.77;100.00
65897;BME280;52677;50.898;10.854;2023-04-07T05:23:21;98540.94;;;-2.83;100.00
65897;BME280;52677;50.898;10.854;2023-04-07T05:25:21;98544.19;;;-2.80;100.00
65897;BME280;52677;50.898;10.854;2023-04-07T05:27:21;98543.59;;;-2.77;100.00
65897;BME280;52677;50.898;10.854;2023-04-07T05:29:22;98547.63;;;-2.75;100.00
65897;BME280;52677;50.898;10.854;2023-04-07T05:31:22;98536.22;;;-2.72;100.00
65897;BME280;52677;50.898;10.854;2023-04-07T05:33:23;98536.97;;;-2.66;100.00
65897;BME280;52677;50.898;10.854;2023-04-07T05:35:23;98535.66;;;-2.69;100.00
65897;BME280;52677;50.898;10.854;2023-04-07T05:37:23;98538.00;;;-2.62;100.00
65897;BME280;52677;50.898;10.854;2023-04-07T05:39:23;98541.97;;;-2.55;100.00
65897;BME280;52677;50.898;10.854;2023-04-07T05:41:24;98541.09;;;-2.50;100.00
65897;BME280;52677;50.898;10.854;2023-04-07T05:43:24;98536.47;;;-2.49;100.00
65897;BME280;52677;50.898;10.854;2023-04-07T05:45:24;98539.97;;;-2.49;100.00
65897;BME280;52677;50.898;10.854;2023-04-07T05:47:25;98533.56;;;-2.53;100.00
65897;BME280;52677;50.898;10.854;2023-04-07T05:49:25;98541.16;;;-2.55;100.00
65897;BME280;52677;50.898;10.854;2023-04-07T05:51:26;98537.56;;;-2.50;100.00
65897;BME280;52677;50.898;10.854;2023-04-07T05:53:26;98539.63;;;-2.42;100.00
65897;BME280;52677;50.898;10.854;2023-04-07T05:55:26;98546.59;;;-2.36;100.00
65897;BME280;52677;50.898;10.854;2023-04-07T05:57:27;98541.13;;;-2.31;100.00
65897;BME280;52677;50.898;10.854;2023-04-07T05:59:27;98551.38;;;-2.28;100.00
65897;BME280;52677;50.898;10.854;2023-04-07T06:01:28;98548.88;;;-2.24;100.00
65897;BME280;52677;50.898;10.854;2023-04-07T06:03:28;98541.78;;;-2.20;100.00
65897;BME280;52677;50.898;10.854;2023-04-07T06:05:28;98547.56;;;-2.08;100.00
65897;BME280;52677;50.898;10.854;2023-04-07T06:07:29;98541.56;;;-2.05;100.00
65897;BME280;52677;50.898;10.854;2023-04-07T06:09:29;98551.44;;;-1.95;100.00
65897;BME280;52677;50.898;10.854;2023-04-07T06:11:30;98555.91;;;-1.86;100.00
65897;BME280;52677;50.898;10.854;2023-04-07T06:13:30;98547.16;;;-1.83;100.00
65897;BME280;52677;50.898;10.854;2023-04-07T06:15:30;98552.53;;;-1.78;100.00
65897;BME280;52677;50.898;10.854;2023-04-07T06:17:31;98558.69;;;-1.72;100.00
65897;BME280;52677;50.898;10.854;2023-04-07T06:19:31;98558.06;;;-1.69;100.00
65897;BME280;52677;50.898;10.854;2023-04-07T06:21:32;98558.31;;;-1.65;100.00
65897;BME280;52677;50.898;10.854;2023-04-07T06:23:33;98559.31;;;-1.61;100.00
65897;BME280;52677;50.898;10.854;2023-04-07T06:25:33;98555.44;;;-1.55;100.00
65897;BME280;52677;50.898;10.854;2023-04-07T06:27:34;98546.38;;;-1.51;100.00
65897;BME280;52677;50.898;10.854;2023-04-07T06:29:35;98560.38;;;-1.44;100.00
65897;BME280;52677;50.898;10.854;2023-04-07T06:31:35;98553.47;;;-1.36;100.00
65897;BME280;52677;50.898;10.854;2023-04-07T06:33:36;98547.34;;;-1.28;100.00
65897;BME280;52677;50.898;10.854;2023-04-07T06:35:38;98552.59;;;-1.18;100.00
65897;BME280;52677;50.898;10.854;2023-04-07T06:37:39;98554.31;;;-1.08;100.00
65897;BME280;52677;50.898;10.854;2023-04-07T06:39:39;98555.81;;;-1.02;100.00
65897;BME280;52677;50.898;10.854;2023-04-07T06:41:39;98548.91;;;-0.94;100.00
65897;BME280;52677;50.898;10.854;2023-04-07T06:43:47;98563.69;;;-0.87;100.00
65897;BME280;52677;50.898;10.854;2023-04-07T06:45:48;98544.78;;;-0.78;100.00
65897;BME280;52677;50.898;10.854;2023-04-07T06:47:48;98561.19;;;-0.69;100.00
65897;BME280;52677;50.898;10.854;2023-04-07T06:49:48;98556.34;;;-0.59;100.00
65897;BME280;52677;50.898;10.854;2023-04-07T06:51:49;98567.28;;;-0.50;100.00
65897;BME280;52677;50.898;10.854;2023-04-07T06:53:49;98548.97;;;-0.44;100.00
65897;BME280;52677;50.898;10.854;2023-04-07T06:55:50;98559.13;;;-0.36;100.00
65897;BME280;52677;50.898;10.854;2023-04-07T06:57:50;98559.03;;;-0.31;100.00
65897;BME280;52677;50.898;10.854;2023-04-07T06:59:51;98558.09;;;-0.26;100.00
65897;BME280;52677;50.898;10.854;2023-04-07T07:01:51;98553.38;;;-0.21;100.00
65897;BME280;52677;50.898;10.854;2023-04-07T07:03:51;98549.13;;;-0.13;100.00
65897;BME280;52677;50.898;10.854;2023-04-07T07:05:53;98552.25;;;-0.06;100.00
65897;BME280;52677;50.898;10.854;2023-04-07T07:07:55;98548.78;;;0.02;100.00
65897;BME280;52677;50.898;10.854;2023-04-07T07:09:55;98552.38;;;0.11;100.00
65897;BME280;52677;50.898;10.854;2023-04-07T07:11:56;98556.78;;;0.21;100.00
65897;BME280;52677;50.898;10.854;2023-04-07T07:13:56;98555.41;;;0.32;100.00
65897;BME280;52677;50.898;10.854;2023-04-07T07:15:57;98548.13;;;0.41;100.00
65897;BME280;52677;50.898;10.854;2023-04-07T07:17:57;98563.72;;;0.49;100.00
65897;BME280;52677;50.898;10.854;2023-04-07T07:19:57;98555.78;;;0.62;100.00
65897;BME280;52677;50.898;10.854;2023-04-07T07:21:57;98562.09;;;0.71;100.00
65897;BME280;52677;50.898;10.854;2023-04-07T07:23:58;98554.59;;;0.76;100.00
65897;BME280;52677;50.898;10.854;2023-04-07T07:25:58;98562.81;;;0.85;100.00
65897;BME280;52677;50.898;10.854;2023-04-07T07:27:58;98567.19;;;0.95;100.00
65897;BME280;52677;50.898;10.854;2023-04-07T07:29:59;98556.50;;;1.07;100.00
65897;BME280;52677;50.898;10.854;2023-04-07T07:31:59;98556.25;;;1.17;100.00
65897;BME280;52677;50.898;10.854;2023-04-07T07:33:59;98559.00;;;1.26;100.00
65897;BME280;52677;50.898;10.854;2023-04-07T07:36:00;98553.09;;;1.32;100.00
65897;BME280;52677;50.898;10.854;2023-04-07T07:38:00;98560.88;;;1.56;100.00
65897;BME280;52677;50.898;10.854;2023-04-07T07:40:01;98561.88;;;1.78;100.00
65897;BME280;52677;50.898;10.854;2023-04-07T07:42:01;98563.97;;;1.89;100.00
65897;BME280;52677;50.898;10.854;2023-04-07T07:44:01;98569.44;;;1.98;100.00
65897;BME280;52677;50.898;10.854;2023-04-07T07:46:02;98565.13;;;2.06;100.00
65897;BME280;52677;50.898;10.854;2023-04-07T07:48:03;98564.84;;;2.16;100.00
65897;BME280;52677;50.898;10.854;2023-04-07T07:50:03;98560.81;;;2.31;100.00
65897;BME280;52677;50.898;10.854;2023-04-07T07:52:04;98568.69;;;2.41;100.00
65897;BME280;52677;50.898;10.854;2023-04-07T07:54:05;98560.81;;;2.57;100.00
65897;BME280;52677;50.898;10.854;2023-04-07T07:56:05;98563.19;;;2.67;100.00
65897;BME280;52677;50.898;10.854;2023-04-07T07:58:05;98572.97;;;2.76;100.00
65897;BME280;52677;50.898;10.854;2023-04-07T08:00:06;98576.47;;;2.94;100.00
65897;BME280;52677;50.898;10.854;2023-04-07T08:02:07;98575.13;;;3.18;100.00
65897;BME280;52677;50.898;10.854;2023-04-07T08:04:08;98577.84;;;3.26;100.00
65897;BME280;52677;50.898;10.854;2023-04-07T08:06:08;98574.59;;;3.33;100.00
65897;BME280;52677;50.898;10.854;2023-04-07T08:08:08;98575.81;;;3.44;98.74
65897;BME280;52677;50.898;10.854;2023-04-07T08:10:09;98584.03;;;3.44;98.48
65897;BME280;52677;50.898;10.854;2023-04-07T08:12:09;98582.91;;;3.45;98.07
65897;BME280;52677;50.898;10.854;2023-04-07T08:14:10;98581.41;;;3.56;98.08
65897;BME280;52677;50.898;10.854;2023-04-07T08:16:10;98585.84;;;3.70;97.06
65897;BME280;52677;50.898;10.854;2023-04-07T08:18:11;98584.00;;;3.82;94.90
65897;BME280;52677;50.898;10.854;2023-04-07T08:20:11;98573.88;;;3.83;94.65
65897;BME280;52677;50.898;10.854;2023-04-07T08:22:11;98579.13;;;3.88;94.60
65897;BME280;52677;50.898;10.854;2023-04-07T08:24:12;98584.38;;;4.02;93.76
65897;BME280;52677;50.898;10.854;2023-04-07T08:26:12;98576.75;;;4.28;95.60
65897;BME280;52677;50.898;10.854;2023-04-07T08:28:12;98582.19;;;4.58;89.32
65897;BME280;52677;50.898;10.854;2023-04-07T08:30:13;98579.63;;;4.73;88.38
65897;BME280;52677;50.898;10.854;2023-04-07T08:32:13;98578.81;;;4.73;88.16
65897;BME280;52677;50.898;10.854;2023-04-07T08:34:13;98579.19;;;4.84;86.86
65897;BME280;52677;50.898;10.854;2023-04-07T08:36:15;98576.72;;;4.91;86.66
65897;BME280;52677;50.898;10.854;2023-04-07T08:38:15;98576.81;;;4.94;88.23
65897;BME280;52677;50.898;10.854;2023-04-07T08:40:16;98579.59;;;5.06;86.96
65897;BME280;52677;50.898;10.854;2023-04-07T08:42:18;98582.81;;;5.08;85.01
65897;BME280;52677;50.898;10.854;2023-04-07T08:44:20;98581.91;;;5.17;85.57
65897;BME280;52677;50.898;10.854;2023-04-07T08:46:21;98580.41;;;5.19;85.63
65897;BME280;52677;50.898;10.854;2023-04-07T08:48:23;98577.56;;;5.28;86.00
65897;BME280;52677;50.898;10.854;2023-04-07T08:50:27;98574.72;;;5.36;85.39
65897;BME280;52677;50.898;10.854;2023-04-07T08:52:40;98582.41;;;5.43;87.04
65897;BME280;52677;50.898;10.854;2023-04-07T08:54:43;98575.22;;;5.51;83.77
65897;BME280;52677;50.898;10.854;2023-04-07T08:56:44;98577.50;;;5.49;84.46
65897;BME280;52677;50.898;10.854;2023-04-07T08:58:46;98578.19;;;5.58;87.27
65897;BME280;52677;50.898;10.854;2023-04-07T09:00:47;98568.00;;;5.83;81.41
65897;BME280;52677;50.898;10.854;2023-04-07T09:02:49;98575.31;;;6.03;82.52
65897;BME280;52677;50.898;10.854;2023-04-07T09:04:51;98571.91;;;6.06;79.32
65897;BME280;52677;50.898;10.854;2023-04-07T09:06:51;98574.03;;;6.25;79.42
65897;BME280;52677;50.898;10.854;2023-04-07T09:08:51;98576.50;;;6.42;79.46
65897;BME280;52677;50.898;10.854;2023-04-07T09:10:52;98580.28;;;6.50;79.12
65897;BME280;52677;50.898;10.854;2023-04-07T09:12:53;98572.47;;;6.52;77.77
65897;BME280;52677;50.898;10.854;2023-04-07T09:14:53;98589.28;;;6.63;75.46
65897;BME280;52677;50.898;10.854;2023-04-07T09:16:54;98579.97;;;6.67;76.36
65897;BME280;52677;50.898;10.854;2023-04-07T09:18:55;98576.63;;;6.74;75.03
65897;BME280;52677;50.898;10.854;2023-04-07T09:21:03;98577.88;;;6.76;74.09
65897;BME280;52677;50.898;10.854;2023-04-07T09:23:04;98573.66;;;6.79;74.98
65897;BME280;52677;50.898;10.854;2023-04-07T09:25:09;98583.94;;;6.82;73.43
65897;BME280;52677;50.898;10.854;2023-04-07T09:27:15;98582.53;;;6.88;73.32
65897;BME280;52677;50.898;10.854;2023-04-07T09:29:20;98578.88;;;6.84;73.00
65897;BME280;52677;50.898;10.854;2023-04-07T09:31:21;98574.63;;;6.87;74.04
65897;BME280;52677;50.898;10.854;2023-04-07T09:33:29;98567.28;;;6.91;72.45
65897;BME280;52677;50.898;10.854;2023-04-07T09:35:29;98574.50;;;6.95;72.20
65897;BME280;52677;50.898;10.854;2023-04-07T09:37:30;98573.53;;;7.03;71.73
65897;BME280;52677;50.898;10.854;2023-04-07T09:39:30;98568.81;;;7.04;71.62
65897;BME280;52677;50.898;10.854;2023-04-07T09:41:31;98570.84;;;7.07;72.32
65897;BME280;52677;50.898;10.854;2023-04-07T09:43:31;98568.03;;;7.19;73.92
65897;BME280;52677;50.898;10.854;2023-04-07T09:45:32;98569.56;;;7.32;71.88
65897;BME280;52677;50.898;10.854;2023-04-07T09:47:33;98568.41;;;7.33;69.29
65897;BME280;52677;50.898;10.854;2023-04-07T09:49:47;98562.81;;;7.46;67.59
65897;BME280;52677;50.898;10.854;2023-04-07T09:51:56;98551.63;;;7.54;66.41
65897;BME280;52677;50.898;10.854;2023-04-07T09:53:56;98549.75;;;7.58;69.74
65897;BME280;52677;50.898;10.854;2023-04-07T09:55:57;98565.66;;;7.65;68.73
65897;BME280;52677;50.898;10.854;2023-04-07T09:57:57;98557.13;;;7.70;66.52
65897;BME280;52677;50.898;10.854;2023-04-07T09:59:58;98553.03;;;7.80;66.74
65897;BME280;52677;50.898;10.854;2023-04-07T10:01:59;98552.03;;;7.88;69.37
65897;BME280;52677;50.898;10.854;2023-04-07T10:04:00;98556.56;;;7.96;69.99
65897;BME280;52677;50.898;10.854;2023-04-07T10:06:00;98561.56;;;8.10;65.41
65897;BME280;52677;50.898;10.854;2023-04-07T10:08:01;98546.53;;;8.23;64.84
65897;BME280;52677;50.898;10.854;2023-04-07T10:10:03;98557.28;;;8.28;64.93
65897;BME280;52677;50.898;10.854;2023-04-07T10:12:05;98553.88;;;8.35;67.04
65897;BME280;52677;50.898;10.854;2023-04-07T10:14:06;98545.34;;;8.40;63.87
65897;BME280;52677;50.898;10.854;2023-04-07T10:16:07;98547.50;;;8.50;66.60
65897;BME280;52677;50.898;10.854;2023-04-07T10:18:07;98538.59;;;8.57;64.71
65897;BME280;52677;50.898;10.854;2023-04-07T10:20:08;98545.41;;;8.63;67.17
65897;BME280;52677;50.898;10.854;2023-04-07T10:22:10;98543.97;;;8.69;64.95
65897;BME280;52677;50.898;10.854;2023-04-07T10:24:32;98537.63;;;8.68;67.46
65897;BME280;52677;50.898;10.854;2023-04-07T10:26:37;98546.13;;;8.79;65.12
65897;BME280;52677;50.898;10.854;2023-04-07T10:28:41;98536.03;;;8.87;63.32
65897;BME280;52677;50.898;10.854;2023-04-07T10:30:42;98538.09;;;8.93;64.31
65897;BME280;52677;50.898;10.854;2023-04-07T10:32:48;98546.84;;;8.95;64.51
65897;BME280;52677;50.898;10.854;2023-04-07T10:37:10;98526.34;;;8.96;65.96
65897;BME280;52677;50.898;10.854;2023-04-07T10:41:39;98529.91;;;9.43;66.75
65897;BME280;52677;50.898;10.854;2023-04-07T10:43:40;98541.41;;;9.45;63.12